Plato — 8PRX — position and weather

sailwx.info

Track history (hours):
 
Tides and Currents Weather Stations Pressure Air Temp Water Temp Dewpoint Dewpoint Depression Visibility Wind Speed Wind Dir Waves Ship Positions

Plato

Last reported at 2015-Apr-19 17:15 UTC. Time now 2015-Apr-21 23:22 UTC.
Position N 38°23' W 010°00'.

Length 88 m; draft 4.6 m.

Type: Ship. MMSI: 314189000.

Date/timePositionNaut miles runAvg speedWind from/ knotsBaromVisibWave heightAir tempDewpointWater temp
2015-Apr-19 17:15N 38°23' W 010°00'1110.3
2015-Apr-19 16:14N 38°33' W 010°03'710.6
2015-Apr-19 15:32N 38°41' W 010°05'1010.3
2015-Apr-19 14:33N 38°51' W 010°05'10 9.7
2015-Apr-19 13:33N 39°00' W 010°06'  
2015-Apr-16 04:31N 50°00' W 002°37'17 8.8
2015-Apr-16 02:32N 50°02' W 002°10'2511.4
2015-Apr-16 00:22N 49°56' W 001°33'1113.2
2015-Apr-15 23:32N 49°52' W 001°17'1313.2
2015-Apr-15 22:33N 49°46' W 000°59'1211.9
2015-Apr-15 21:34N 49°41' W 000°43'1110.8
2015-Apr-15 20:33N 49°36' W 000°28'10 9.7
2015-Apr-15 19:33N 49°32' W 000°14'9 9.3
2015-Apr-15 18:33N 49°28' W 000°01'9 9.0
2015-Apr-15 17:33N 49°26' E 000°12'7 6.9
2015-Apr-15 16:33N 49°27' E 000°23'5 4.8
2015-Apr-15 15:33N 49°29' E 000°29'0 0.0
2015-Apr-15 14:32N 49°29' E 000°29'0 0.0
2015-Apr-15 13:31N 49°29' E 000°29'0 0.0
2015-Apr-15 12:33N 49°29' E 000°29'0 0.0
2015-Apr-15 11:32N 49°29' E 000°29'0 0.0
2015-Apr-15 10:32N 49°29' E 000°29'0 0.0
2015-Apr-15 09:28N 49°29' E 000°29'0 0.0
2015-Apr-15 08:31N 49°29' E 000°29'0 0.0
2015-Apr-15 07:30N 49°29' E 000°29'0 0.0
2015-Apr-15 06:32N 49°29' E 000°29'0 0.0
2015-Apr-15 05:32N 49°29' E 000°29'0 0.0
2015-Apr-15 04:31N 49°29' E 000°29'0 0.0
2015-Apr-15 03:31N 49°29' E 000°29'0 0.0
2015-Apr-15 02:30N 49°29' E 000°29'0 0.0
2015-Apr-15 01:29N 49°29' E 000°29'0 0.0
2015-Apr-15 00:32N 49°29' E 000°29'0 0.0
2015-Apr-14 23:31N 49°29' E 000°29'0 0.0
2015-Apr-14 22:31N 49°29' E 000°29'0 0.0
2015-Apr-14 21:33N 49°29' E 000°29'0 0.0
2015-Apr-14 20:29N 49°29' E 000°29'0 0.0
2015-Apr-14 19:32N 49°29' E 000°29'0 0.0
2015-Apr-14 18:31N 49°29' E 000°29'0 0.0
2015-Apr-14 17:31N 49°29' E 000°29'0 0.0
2015-Apr-14 16:33N 49°29' E 000°29'0 0.0
2015-Apr-14 15:32N 49°29' E 000°29'0 0.0
2015-Apr-14 14:32N 49°29' E 000°29'0 0.0
2015-Apr-14 13:31N 49°29' E 000°29'0 0.0
2015-Apr-14 12:31N 49°29' E 000°29'0 0.0
2015-Apr-14 11:33N 49°29' E 000°29'0 0.0
2015-Apr-14 10:32N 49°29' E 000°29'0 0.0
2015-Apr-14 09:29N 49°29' E 000°29'0 0.0
2015-Apr-14 08:31N 49°29' E 000°29'0 0.0
2015-Apr-14 07:31N 49°29' E 000°29'0 0.0
2015-Apr-14 06:33N 49°29' E 000°29'0 0.0
2015-Apr-14 05:32N 49°29' E 000°29'0 0.0
2015-Apr-14 04:32N 49°29' E 000°29'0 0.0
2015-Apr-14 03:31N 49°29' E 000°29'0 0.0
2015-Apr-14 02:31N 49°29' E 000°29'0 0.0
2015-Apr-14 01:33N 49°29' E 000°29'0 0.0
2015-Apr-14 00:33N 49°29' E 000°29'0 0.0
2015-Apr-13 23:32N 49°29' E 000°29'0 0.0
2015-Apr-13 22:33N 49°29' E 000°29'0 0.0
2015-Apr-13 21:33N 49°29' E 000°29'0 0.0
2015-Apr-13 20:33N 49°29' E 000°29'0 0.0
2015-Apr-13 19:33N 49°29' E 000°29'0 0.0
2015-Apr-13 18:33N 49°29' E 000°29'2 1.6
2015-Apr-13 17:33N 49°28' E 000°27'10 9.9
2015-Apr-13 16:33N 49°26' E 000°12'10 9.7
2015-Apr-13 15:33N 49°28' W 000°02'8 7.6
2015-Apr-13 14:33N 49°30' W 000°13'4 4.1
2015-Apr-13 13:33N 49°33' W 000°18'8 7.6
2015-Apr-13 12:33N 49°36' W 000°29'15 6.9
2015-Apr-13 10:23N 49°42' W 000°50'  
Track history (hours):
 
Tides and Currents Weather Stations Pressure Air Temp Water Temp Dewpoint Dewpoint Depression Visibility Wind Speed Wind Dir Waves Ship Positions

Plato

Last reported at 2015-Apr-19 17:15 UTC. Time now 2015-Apr-21 23:22 UTC.
Position N 38°23' W 010°00'.

Length 88 m; draft 4.6 m.

Type: Ship. MMSI: 314189000.

Date/timePositionNaut miles runAvg speedWind from/ knotsBaromVisibWave heightAir tempDewpointWater temp
2015-Apr-19 17:15N 38°23' W 010°00'1110.3
2015-Apr-19 16:14N 38°33' W 010°03'710.6
2015-Apr-19 15:32N 38°41' W 010°05'1010.3
2015-Apr-19 14:33N 38°51' W 010°05'10 9.7
2015-Apr-19 13:33N 39°00' W 010°06'  
2015-Apr-16 04:31N 50°00' W 002°37'17 8.8
2015-Apr-16 02:32N 50°02' W 002°10'2511.4
2015-Apr-16 00:22N 49°56' W 001°33'1113.2
2015-Apr-15 23:32N 49°52' W 001°17'1313.2
2015-Apr-15 22:33N 49°46' W 000°59'1211.9
2015-Apr-15 21:34N 49°41' W 000°43'1110.8
2015-Apr-15 20:33N 49°36' W 000°28'10 9.7
2015-Apr-15 19:33N 49°32' W 000°14'9 9.3
2015-Apr-15 18:33N 49°28' W 000°01'9 9.0
2015-Apr-15 17:33N 49°26' E 000°12'7 6.9
2015-Apr-15 16:33N 49°27' E 000°23'5 4.8
2015-Apr-15 15:33N 49°29' E 000°29'0 0.0
2015-Apr-15 14:32N 49°29' E 000°29'0 0.0
2015-Apr-15 13:31N 49°29' E 000°29'0 0.0
2015-Apr-15 12:33N 49°29' E 000°29'0 0.0
2015-Apr-15 11:32N 49°29' E 000°29'0 0.0
2015-Apr-15 10:32N 49°29' E 000°29'0 0.0
2015-Apr-15 09:28N 49°29' E 000°29'0 0.0
2015-Apr-15 08:31N 49°29' E 000°29'0 0.0
2015-Apr-15 07:30N 49°29' E 000°29'0 0.0
2015-Apr-15 06:32N 49°29' E 000°29'0 0.0
2015-Apr-15 05:32N 49°29' E 000°29'0 0.0
2015-Apr-15 04:31N 49°29' E 000°29'0 0.0
2015-Apr-15 03:31N 49°29' E 000°29'0 0.0
2015-Apr-15 02:30N 49°29' E 000°29'0 0.0
2015-Apr-15 01:29N 49°29' E 000°29'0 0.0
2015-Apr-15 00:32N 49°29' E 000°29'0 0.0
2015-Apr-14 23:31N 49°29' E 000°29'0 0.0
2015-Apr-14 22:31N 49°29' E 000°29'0 0.0
2015-Apr-14 21:33N 49°29' E 000°29'0 0.0
2015-Apr-14 20:29N 49°29' E 000°29'0 0.0
2015-Apr-14 19:32N 49°29' E 000°29'0 0.0
2015-Apr-14 18:31N 49°29' E 000°29'0 0.0
2015-Apr-14 17:31N 49°29' E 000°29'0 0.0
2015-Apr-14 16:33N 49°29' E 000°29'0 0.0
2015-Apr-14 15:32N 49°29' E 000°29'0 0.0
2015-Apr-14 14:32N 49°29' E 000°29'0 0.0
2015-Apr-14 13:31N 49°29' E 000°29'0 0.0
2015-Apr-14 12:31N 49°29' E 000°29'0 0.0
2015-Apr-14 11:33N 49°29' E 000°29'0 0.0
2015-Apr-14 10:32N 49°29' E 000°29'0 0.0
2015-Apr-14 09:29N 49°29' E 000°29'0 0.0
2015-Apr-14 08:31N 49°29' E 000°29'0 0.0
2015-Apr-14 07:31N 49°29' E 000°29'0 0.0
2015-Apr-14 06:33N 49°29' E 000°29'0 0.0
2015-Apr-14 05:32N 49°29' E 000°29'0 0.0
2015-Apr-14 04:32N 49°29' E 000°29'0 0.0
2015-Apr-14 03:31N 49°29' E 000°29'0 0.0
2015-Apr-14 02:31N 49°29' E 000°29'0 0.0
2015-Apr-14 01:33N 49°29' E 000°29'0 0.0
2015-Apr-14 00:33N 49°29' E 000°29'0 0.0
2015-Apr-13 23:32N 49°29' E 000°29'0 0.0
2015-Apr-13 22:33N 49°29' E 000°29'0 0.0
2015-Apr-13 21:33N 49°29' E 000°29'0 0.0
2015-Apr-13 20:33N 49°29' E 000°29'0 0.0
2015-Apr-13 19:33N 49°29' E 000°29'0 0.0
2015-Apr-13 18:33N 49°29' E 000°29'2 1.6
2015-Apr-13 17:33N 49°28' E 000°27'10 9.9
2015-Apr-13 16:33N 49°26' E 000°12'10 9.7
2015-Apr-13 15:33N 49°28' W 000°02'8 7.6
2015-Apr-13 14:33N 49°30' W 000°13'4 4.1
2015-Apr-13 13:33N 49°33' W 000°18'8 7.6
2015-Apr-13 12:33N 49°36' W 000°29'15 6.9
2015-Apr-13 10:23N 49°42' W 000°50'  

Dump ship's entire track history